Terminal Aerodrome Forecast
Issued by NWS Wilmington, NC

Current Version | Previous Version | Text Only | Print | Product List | Glossary On
Versions: 1 2 3 4 5 6 7 8 9 10 11 12 13 14
000
FTUS42 KILM 061123
TAFILM
TAF
KILM 061123Z 0612/0712 06011G18KT 5SM RA OVC006
     FM061600 09015KT 3SM -RA BR OVC003
     FM062100 27011KT 4SM -DZ BR BKN007
     FM070400 32005KT 3SM BR SCT003 OVC007=

USA.gov is the U.S. government's official web portal to all federal, state and local government web resources and services.